Time;durP1;ratioP1;P1;durP2;ratioP2;P2;SDS_P1;SDS_P2;PMS_P1;PMS_P2;Temp;Humidity;BMP_temperature;BMP_pressure;BME280_temperature;BME280_humidity;BME280_pressure;Samples;Min_cycle;Max_cycle;Signal;HPM_P1;HPM_P2
2022/10/24 00:02:43;;;;;;;8.88;8.68;;;17.20;99.90;;;;;;5089683;28;20272;-82
2022/10/24 00:05:30;;;;;;;8.80;8.60;;;17.20;99.90;;;;;;5087843;28;20313;-82
2022/10/24 00:08:00;;;;;;;8.70;8.50;;;17.20;99.90;;;;;;5087854;28;20252;-83
2022/10/24 00:10:39;;;;;;;9.20;8.90;;;17.20;99.90;;;;;;5088641;28;20256;-82
2022/10/24 00:13:10;;;;;;;9.00;8.77;;;17.20;99.90;;;;;;5085716;28;20237;-82
2022/10/24 00:15:38;;;;;;;8.55;8.35;;;17.20;99.90;;;;;;5082702;28;20256;-82
2022/10/24 00:18:15;;;;;;;8.80;8.60;;;17.20;99.90;;;;;;5082790;28;20261;-82
2022/10/24 00:20:47;;;;;;;8.70;8.50;;;17.20;99.90;;;;;;5083293;28;20243;-83
2022/10/24 00:23:26;;;;;;;8.50;8.30;;;17.20;99.90;;;;;;5086644;28;20289;-83
2022/10/24 00:26:05;;;;;;;8.80;8.60;;;17.10;99.90;;;;;;5079867;28;20240;-83
2022/10/24 00:28:40;;;;;;;8.60;8.40;;;17.10;99.90;;;;;;5087966;28;20226;-83
2022/10/24 00:31:19;;;;;;;8.88;8.68;;;17.00;99.90;;;;;;5089415;28;20234;-83
2022/10/24 00:33:49;;;;;;;8.70;8.50;;;17.00;99.90;;;;;;5088158;28;20234;-83
2022/10/24 00:36:24;;;;;;;8.63;8.43;;;16.90;99.90;;;;;;5082854;28;20230;-82
2022/10/24 00:41:54;;;;;;;8.93;8.73;;;16.90;99.90;;;;;;5083683;28;20229;-83
2022/10/24 00:44:28;;;;;;;8.80;8.60;;;16.90;99.90;;;;;;5087452;28;20256;-83
2022/10/24 00:47:07;;;;;;;8.55;8.35;;;16.90;99.90;;;;;;5083130;28;20362;-83
2022/10/24 00:52:51;;;;;;;8.85;8.65;;;16.80;99.90;;;;;;5082751;28;20226;-83
2022/10/24 00:55:22;;;;;;;8.77;8.57;;;16.80;99.90;;;;;;5082878;28;20284;-83
2022/10/24 00:58:00;;;;;;;8.60;8.40;;;16.70;99.90;;;;;;5083925;28;20250;-83
2022/10/24 01:00:38;;;;;;;8.73;8.52;;;16.60;99.90;;;;;;5083765;28;20226;-83
2022/10/24 01:06:29;;;;;;;8.80;8.60;;;16.50;99.90;;;;;;5084689;28;21057;-83
2022/10/24 01:09:42;;;;;;;8.52;8.32;;;16.50;99.90;;;;;;5081611;28;20226;-83
2022/10/24 01:12:48;;;;;;;8.80;8.60;;;16.50;99.90;;;;;;5081313;28;20225;-83
2022/10/24 01:15:33;;;;;;;8.65;8.45;;;16.40;99.90;;;;;;5081818;28;20238;-83
2022/10/24 01:18:11;;;;;;;8.75;8.55;;;16.40;99.90;;;;;;5085756;28;20246;-83
2022/10/24 01:21:26;;;;;;;8.80;8.60;;;16.30;99.90;;;;;;5098493;28;20226;-82
2022/10/24 01:24:43;;;;;;;8.60;8.40;;;16.30;99.90;;;;;;5093981;28;20223;-82
2022/10/24 01:30:49;;;;;;;8.48;8.27;;;16.20;99.90;;;;;;5042216;28;20278;-82
2022/10/24 01:33:34;;;;;;;8.50;8.30;;;16.10;99.90;;;;;;5084035;28;20229;-82
2022/10/24 01:36:21;;;;;;;8.77;8.57;;;16.10;99.90;;;;;;5082349;28;20230;-82
2022/10/24 01:41:56;;;;;;;8.60;8.40;;;16.00;99.90;;;;;;5085413;28;20242;-83
2022/10/24 01:44:33;;;;;;;8.60;8.40;;;16.00;99.90;;;;;;5085000;28;20233;-83
2022/10/24 01:47:20;;;;;;;8.48;8.27;;;16.00;99.90;;;;;;5084114;28;20245;-83
2022/10/24 01:49:59;;;;;;;8.82;8.63;;;16.00;99.90;;;;;;5084670;28;20241;-83
2022/10/24 01:52:39;;;;;;;8.63;8.43;;;16.00;99.90;;;;;;5084255;28;20246;-83
2022/10/24 01:55:18;;;;;;;8.40;8.20;;;16.00;99.90;;;;;;5083577;28;20693;-83
2022/10/24 02:00:33;;;;;;;8.60;8.40;;;16.00;99.90;;;;;;5087748;28;20226;-83
2022/10/24 02:03:12;;;;;;;8.20;8.00;;;16.00;99.90;;;;;;5085143;28;20236;-82
2022/10/24 02:05:59;;;;;;;8.35;8.15;;;16.00;99.90;;;;;;5083992;28;20229;-83
2022/10/24 02:08:36;;;;;;;8.10;7.90;;;16.00;99.90;;;;;;5083360;28;20226;-83
2022/10/24 02:11:13;;;;;;;8.50;8.30;;;16.00;99.90;;;;;;5082608;28;20245;-83
2022/10/24 02:14:00;;;;;;;8.85;8.65;;;16.00;99.90;;;;;;5081517;28;20244;-82
2022/10/24 02:16:33;;;;;;;8.57;8.38;;;16.00;99.90;;;;;;5080951;28;20238;-82
2022/10/24 02:19:19;;;;;;;8.40;8.20;;;16.00;99.90;;;;;;5093841;28;20205;-82
2022/10/24 02:22:07;;;;;;;8.20;8.00;;;15.90;99.90;;;;;;5096627;28;20236;-82
2022/10/24 02:24:51;;;;;;;8.25;8.05;;;15.90;99.90;;;;;;5086174;28;20241;-82
2022/10/24 02:27:29;;;;;;;8.40;8.20;;;15.90;99.90;;;;;;5082881;28;20237;-82
2022/10/24 02:30:07;;;;;;;8.30;8.10;;;15.80;99.90;;;;;;5082837;28;20245;-83
2022/10/24 02:33:00;;;;;;;8.05;7.85;;;15.80;99.90;;;;;;5083004;28;20222;-82
2022/10/24 02:35:49;;;;;;;8.25;8.05;;;15.70;99.90;;;;;;5081563;28;20242;-82
2022/10/24 02:38:29;;;;;;;8.15;7.95;;;15.70;99.90;;;;;;5082214;28;20240;-82
2022/10/24 02:41:06;;;;;;;7.80;7.60;;;15.70;99.90;;;;;;5082560;28;20222;-82
2022/10/24 02:43:36;;;;;;;8.02;7.82;;;15.70;99.90;;;;;;5082360;28;20280;-82
2022/10/24 02:46:07;;;;;;;8.10;7.90;;;15.70;99.90;;;;;;5081816;28;20257;-82
2022/10/24 02:48:49;;;;;;;8.10;7.90;;;15.60;99.90;;;;;;5080940;28;20277;-83
2022/10/24 02:51:34;;;;;;;8.52;8.32;;;15.70;99.90;;;;;;5081826;28;20262;-82
2022/10/24 02:54:20;;;;;;;8.38;8.18;;;15.70;99.90;;;;;;5081673;28;20221;-82
2022/10/24 02:59:53;;;;;;;7.90;7.70;;;15.60;99.90;;;;;;5078312;28;20237;-82
2022/10/24 03:02:24;;;;;;;8.18;7.97;;;15.50;99.90;;;;;;5079249;28;20222;-82
2022/10/24 03:04:54;;;;;;;8.15;7.95;;;15.50;99.90;;;;;;5079796;28;20283;-82
2022/10/24 03:10:13;;;;;;;8.40;8.20;;;15.50;99.90;;;;;;5081148;28;20219;-82
2022/10/24 03:15:39;;;;;;;8.15;7.95;;;15.50;99.90;;;;;;5080658;28;20244;-83
2022/10/24 03:18:12;;;;;;;8.18;7.97;;;15.50;99.90;;;;;;5082225;28;20307;-82
2022/10/24 03:20:52;;;;;;;7.97;7.78;;;15.50;99.90;;;;;;5084634;28;20233;-82
2022/10/24 03:26:17;;;;;;;8.20;8.00;;;15.40;99.90;;;;;;5083783;28;20226;-82
2022/10/24 03:28:57;;;;;;;8.05;7.85;;;15.40;99.90;;;;;;5084615;28;20237;-82
2022/10/24 03:31:25;;;;;;;7.60;7.40;;;15.40;99.90;;;;;;5085180;28;20289;-82
2022/10/24 03:34:02;;;;;;;7.85;7.65;;;15.40;99.90;;;;;;5094524;28;20275;-83
2022/10/24 03:36:33;;;;;;;8.00;7.80;;;15.30;99.90;;;;;;5097377;28;20238;-83
2022/10/24 03:41:49;;;;;;;8.00;7.80;;;15.10;99.90;;;;;;5085865;28;20232;-82
2022/10/24 03:44:26;;;;;;;8.30;8.10;;;15.00;99.90;;;;;;5085496;28;20217;-82
2022/10/24 03:46:55;;;;;;;8.20;8.00;;;14.90;99.90;;;;;;5084711;28;20324;-82
2022/10/24 03:49:27;;;;;;;8.10;7.90;;;14.80;99.90;;;;;;5082670;28;20240;-82
2022/10/24 03:54:50;;;;;;;8.20;8.00;;;14.70;99.90;;;;;;5083060;28;20721;-82
2022/10/24 03:57:22;;;;;;;8.43;8.23;;;14.60;99.90;;;;;;5083315;28;20233;-82
2022/10/24 03:59:58;;;;;;;8.50;8.30;;;14.60;99.90;;;;;;5083445;28;20242;-81
2022/10/24 04:05:15;;;;;;;8.50;8.30;;;14.60;99.90;;;;;;5082743;28;20351;-82
2022/10/24 04:07:49;;;;;;;8.47;8.27;;;14.50;99.90;;;;;;5085555;28;20315;-82
2022/10/24 04:10:24;;;;;;;8.00;7.80;;;14.50;99.90;;;;;;5088925;28;20237;-82
2022/10/24 04:12:52;;;;;;;7.83;7.63;;;14.50;99.90;;;;;;5091100;28;20240;-82
2022/10/24 04:15:31;;;;;;;8.27;8.07;;;14.50;99.90;;;;;;5090095;28;20227;-82
2022/10/24 04:18:03;;;;;;;8.30;8.10;;;14.50;99.90;;;;;;5087189;28;20229;-82
2022/10/24 04:20:40;;;;;;;8.40;8.20;;;14.50;99.90;;;;;;5084410;28;20228;-83
2022/10/24 04:23:07;;;;;;;8.30;8.10;;;14.50;99.90;;;;;;5083896;28;20237;-83
2022/10/24 04:31:11;;;;;;;8.47;8.27;;;14.50;99.90;;;;;;5082811;28;20245;-82
2022/10/24 04:33:48;;;;;;;8.23;8.03;;;14.50;99.90;;;;;;5083854;28;20234;-83
2022/10/24 04:36:19;;;;;;;8.20;8.00;;;14.50;99.90;;;;;;5083059;28;20222;-83
2022/10/24 04:38:48;;;;;;;8.07;7.87;;;14.50;99.90;;;;;;5087489;28;20252;-83
2022/10/24 04:41:27;;;;;;;8.40;8.20;;;14.50;99.90;;;;;;5087254;28;20226;-83
2022/10/24 04:43:56;;;;;;;8.20;8.00;;;14.50;99.90;;;;;;5085948;28;20218;-83
2022/10/24 04:46:26;;;;;;;7.93;7.73;;;14.50;99.90;;;;;;5084768;28;20309;-83
2022/10/24 04:48:58;;;;;;;8.00;7.80;;;14.50;99.90;;;;;;5084687;28;20280;-83
2022/10/24 04:54:23;;;;;;;7.77;7.57;;;14.50;99.90;;;;;;5082306;28;20226;-83
2022/10/24 04:56:59;;;;;;;7.70;7.50;;;14.50;99.90;;;;;;5083580;28;20236;-82
2022/10/24 04:59:40;;;;;;;7.97;7.77;;;14.50;99.90;;;;;;5082930;28;20229;-83
2022/10/24 05:02:26;;;;;;;7.70;7.50;;;14.50;99.90;;;;;;5084073;28;20245;-83
2022/10/24 05:05:04;;;;;;;7.95;7.75;;;14.50;99.90;;;;;;5084160;28;20226;-82
2022/10/24 05:07:34;;;;;;;8.10;7.90;;;14.50;99.90;;;;;;5084287;28;20245;-83
2022/10/24 05:13:01;;;;;;;8.23;8.03;;;14.50;99.90;;;;;;5084211;28;20278;-82
2022/10/24 05:15:45;;;;;;;8.40;8.20;;;14.50;99.90;;;;;;5085138;28;20234;-83
2022/10/24 05:18:23;;;;;;;7.93;7.73;;;14.50;99.90;;;;;;5084619;28;20214;-82
2022/10/24 05:20:52;;;;;;;8.00;7.80;;;14.40;99.90;;;;;;5083143;28;20325;-82
2022/10/24 05:23:24;;;;;;;7.87;7.67;;;14.40;99.90;;;;;;5082499;28;20248;-83
2022/10/24 05:26:00;;;;;;;7.90;7.70;;;14.40;99.90;;;;;;5082280;28;20233;-83
2022/10/24 05:28:38;;;;;;;7.78;7.57;;;14.30;99.90;;;;;;5083022;28;20230;-82
2022/10/24 05:31:14;;;;;;;7.80;7.60;;;14.40;99.90;;;;;;5085488;28;20234;-83
2022/10/24 05:33:48;;;;;;;8.00;7.80;;;14.30;99.90;;;;;;5081697;28;20227;-83
2022/10/24 05:36:15;;;;;;;7.67;7.47;;;14.30;99.90;;;;;;5091928;22;20260;-87
2022/10/24 05:38:45;;;;;;;7.90;7.70;;;14.30;99.90;;;;;;5057286;28;20282;-85
2022/10/24 05:41:14;;;;;;;7.73;7.53;;;14.40;99.90;;;;;;5044036;28;20279;-85
2022/10/24 05:43:45;;;;;;;7.77;7.57;;;14.40;99.90;;;;;;5044996;28;21047;-86
2022/10/24 05:46:13;;;;;;;8.40;8.20;;;14.30;99.90;;;;;;5045227;28;20255;-85
2022/10/24 05:48:42;;;;;;;8.23;8.03;;;14.30;99.90;;;;;;5046756;28;20220;-85
2022/10/24 05:51:11;;;;;;;8.27;8.07;;;14.30;99.90;;;;;;5046071;28;20298;-85
2022/10/24 05:53:41;;;;;;;8.05;7.85;;;14.30;99.90;;;;;;5045624;28;20259;-86
2022/10/24 05:56:10;;;;;;;8.10;7.90;;;14.30;99.90;;;;;;5044984;28;20233;-85
2022/10/24 05:58:39;;;;;;;8.20;8.00;;;14.30;99.90;;;;;;5043559;28;20314;-86
2022/10/24 06:03:56;;;;;;;8.30;8.10;;;14.40;99.90;;;;;;5042809;28;20234;-86
2022/10/24 06:06:25;;;;;;;8.30;8.10;;;14.40;99.90;;;;;;5042816;28;20259;-87
2022/10/24 06:08:55;;;;;;;8.30;8.10;;;14.30;99.90;;;;;;5038572;28;20412;-89
2022/10/24 06:12:36;;;;;;;;;;;;;;;;;;;;;
2022/10/24 06:15:25;;;;;;;8.15;7.95;;;14.50;99.90;;;;;;5038406;28;20239;-91
2022/10/24 06:32:24;;;;;;;8.32;8.13;;;14.80;99.90;;;;;;5029395;28;20321;-90
2022/10/24 06:34:54;;;;;;;8.30;8.10;;;14.80;99.90;;;;;;4996448;28;20268;-86
2022/10/24 06:37:29;;;;;;;8.30;8.10;;;14.90;99.90;;;;;;5036978;28;21022;-86
2022/10/24 06:39:58;;;;;;;8.40;8.20;;;15.00;99.90;;;;;;5038449;28;20266;-85
2022/10/24 06:42:36;;;;;;;8.68;8.48;;;15.10;99.90;;;;;;5040001;28;20322;-85
2022/10/24 06:45:06;;;;;;;8.68;8.48;;;15.20;99.90;;;;;;5037443;28;20231;-86
2022/10/24 06:47:38;;;;;;;8.80;8.60;;;15.30;99.90;;;;;;5037468;28;20278;-85
2022/10/24 06:50:07;;;;;;;8.77;8.57;;;15.40;99.90;;;;;;5037671;28;20231;-86
2022/10/24 06:52:36;;;;;;;8.60;8.40;;;15.40;99.90;;;;;;5036823;28;20311;-86
2022/10/24 06:55:06;;;;;;;8.35;8.15;;;15.50;99.90;;;;;;5037599;28;20223;-85
2022/10/24 06:57:44;;;;;;;8.45;8.25;;;15.50;99.90;;;;;;5037218;28;20314;-85
2022/10/24 07:32:48;;;;;;;8.80;8.60;;;16.20;99.90;;;;;;6168089;23;20243;-87
2022/10/24 07:36:09;;;;;;;9.20;8.90;;;16.20;99.90;;;;;;6169014;23;20203;-90
2022/10/24 07:54:25;;;;;;;9.20;8.90;;;14.50;99.90;;;;;;5960946;24;20221;-87
2022/10/24 07:57:02;;;;;;;9.00;8.70;;;14.50;99.90;;;;;;6021281;23;20202;-87
2022/10/24 07:59:34;;;;;;;9.03;8.73;;;14.50;99.90;;;;;;6133017;23;20199;-82
2022/10/24 08:02:03;;;;;;;9.27;8.97;;;14.60;99.90;;;;;;6202747;23;20198;-82
2022/10/24 08:04:33;;;;;;;8.90;8.60;;;14.50;99.90;;;;;;6202745;23;20254;-83
2022/10/24 08:07:02;;;;;;;9.10;8.80;;;14.40;99.90;;;;;;6202550;23;20227;-83
2022/10/24 08:09:31;;;;;;;9.00;8.70;;;14.30;99.90;;;;;;6207946;23;20195;-82
2022/10/24 08:12:09;;;;;;;8.60;8.40;;;14.30;99.90;;;;;;6211797;23;20196;-83
2022/10/24 08:14:39;;;;;;;8.60;8.40;;;14.30;99.90;;;;;;6205218;23;20191;-82
2022/10/24 08:17:08;;;;;;;9.00;8.70;;;14.30;99.90;;;;;;6205049;23;20278;-84
2022/10/24 08:19:40;;;;;;;8.50;8.30;;;14.30;99.90;;;;;;6203783;23;20235;-82
2022/10/24 08:22:09;;;;;;;8.80;8.60;;;14.30;99.90;;;;;;6203042;23;20207;-83
2022/10/24 08:24:37;;;;;;;8.63;8.43;;;14.20;99.90;;;;;;6197291;23;20192;-85
2022/10/24 08:27:08;;;;;;;8.57;8.37;;;14.20;99.90;;;;;;6195034;23;20230;-85
2022/10/24 08:29:36;;;;;;;9.10;8.80;;;14.30;99.90;;;;;;6195187;23;20224;-86
2022/10/24 08:32:07;;;;;;;8.80;8.60;;;14.20;99.90;;;;;;6194852;23;20237;-90
2022/10/24 08:34:35;;;;;;;8.70;8.50;;;14.20;99.90;;;;;;6193858;23;20199;-85
2022/10/24 08:37:05;;;;;;;8.60;8.40;;;14.20;99.90;;;;;;6194548;23;20207;-85
2022/10/24 08:39:34;;;;;;;8.30;8.10;;;14.20;99.90;;;;;;6194574;23;20207;-85
2022/10/24 08:42:11;;;;;;;8.43;8.23;;;14.10;99.90;;;;;;6194691;23;20191;-85
2022/10/24 08:45:08;;;;;;;8.50;8.30;;;14.20;99.90;;;;;;6194939;23;20220;-91
2022/10/24 09:14:36;;;;;;;8.27;8.07;;;14.60;99.90;;;;;;6078962;23;20198;-91
2022/10/24 09:18:24;;;;;;;8.40;8.20;;;14.60;99.90;;;;;;6104064;23;20224;-90
2022/10/24 09:29:04;;;;;;;8.50;8.30;;;14.60;99.90;;;;;;5960112;24;20233;-89
2022/10/24 11:17:53;;;;;;;8.85;8.65;;;15.80;99.90;;;;;;5008327;28;20235;-87
2022/10/24 11:21:02;;;;;;;8.68;8.48;;;15.80;99.90;;;;;;5023083;28;20231;-85
2022/10/24 11:23:47;;;;;;;8.60;8.40;;;15.80;99.90;;;;;;5042123;27;20223;-86
2022/10/24 11:26:20;;;;;;;8.50;8.30;;;15.80;99.90;;;;;;5137319;27;20238;-85
2022/10/24 11:32:05;;;;;;;8.30;8.10;;;15.80;99.90;;;;;;5136302;27;20220;-87
2022/10/24 11:35:09;;;;;;;8.73;8.52;;;15.80;99.90;;;;;;5136023;27;20286;-86
2022/10/24 11:37:41;;;;;;;8.60;8.40;;;15.90;99.90;;;;;;5149417;22;20719;-80
2022/10/24 11:40:14;;;;;;;8.50;8.30;;;15.90;99.90;;;;;;5114403;28;20237;-79
2022/10/24 11:42:48;;;;;;;8.20;8.00;;;15.90;99.90;;;;;;5114802;28;20252;-79
2022/10/24 11:45:19;;;;;;;8.10;7.90;;;15.90;99.90;;;;;;5113802;28;20234;-79
2022/10/24 11:47:57;;;;;;;8.18;7.97;;;15.90;99.90;;;;;;5113873;28;20253;-79
2022/10/24 11:50:34;;;;;;;8.30;8.10;;;15.80;99.90;;;;;;5115746;28;20236;-80
2022/10/24 11:53:16;;;;;;;8.23;8.02;;;15.90;99.90;;;;;;5115160;28;20386;-79
2022/10/24 11:55:52;;;;;;;8.40;8.20;;;15.90;99.90;;;;;;5113252;28;20583;-80
2022/10/24 11:58:23;;;;;;;8.65;8.45;;;15.90;99.90;;;;;;5116737;28;20235;-81
2022/10/24 12:01:22;;;;;;;8.38;8.18;;;16.00;99.90;;;;;;5115800;28;20271;-81
2022/10/24 12:04:27;;;;;;;8.68;8.48;;;16.00;99.90;;;;;;5111763;28;20216;-81
2022/10/24 12:07:55;;;;;;;8.75;8.55;;;16.10;99.90;;;;;;5069617;28;20316;-80
2022/10/24 12:10:51;;;;;;;8.30;8.10;;;16.10;99.90;;;;;;5087353;28;20291;-80
2022/10/24 12:13:43;;;;;;;8.30;8.10;;;16.10;99.90;;;;;;5102463;28;20249;-80
2022/10/24 12:16:22;;;;;;;8.43;8.23;;;16.20;99.90;;;;;;5101919;28;20214;-79
2022/10/24 12:18:52;;;;;;;8.55;8.35;;;16.20;99.90;;;;;;5104559;28;20234;-79
2022/10/24 12:21:30;;;;;;;8.80;8.60;;;16.30;99.90;;;;;;5105401;28;20226;-78
2022/10/24 12:24:00;;;;;;;8.80;8.60;;;16.30;99.90;;;;;;5104063;28;20322;-78
2022/10/24 12:26:30;;;;;;;8.98;8.70;;;16.30;99.90;;;;;;5102965;28;20241;-78
2022/10/24 12:29:00;;;;;;;8.77;8.57;;;16.30;99.90;;;;;;5102185;28;20260;-78
2022/10/24 12:31:30;;;;;;;8.75;8.55;;;16.40;99.90;;;;;;5100314;28;20316;-76
2022/10/24 12:34:42;;;;;;;8.65;8.45;;;16.40;99.90;;;;;;5100854;28;20298;-77
2022/10/24 12:37:32;;;;;;;8.70;8.50;;;16.40;99.90;;;;;;5099535;28;20233;-78
2022/10/24 12:39:59;;;;;;;9.40;9.10;;;16.50;99.90;;;;;;5099259;28;20235;-77
2022/10/24 12:43:15;;;;;;;8.93;8.70;;;16.60;99.90;;;;;;5100389;28;20312;-78
2022/10/24 12:45:42;;;;;;;9.18;8.88;;;16.60;99.90;;;;;;5083699;28;20257;-78
2022/10/24 12:48:34;;;;;;;9.20;8.90;;;16.70;99.90;;;;;;5102175;28;20229;-78
2022/10/24 12:51:23;;;;;;;9.27;8.98;;;16.60;99.90;;;;;;5101496;28;20225;-78
2022/10/24 12:54:17;;;;;;;9.40;9.10;;;16.60;99.90;;;;;;5101132;28;20324;-78
2022/10/24 12:57:23;;;;;;;8.70;8.50;;;16.50;99.90;;;;;;5099240;28;20225;-78
2022/10/24 12:59:53;;;;;;;8.60;8.40;;;16.50;99.90;;;;;;5087885;28;20261;-79
2022/10/24 13:02:55;;;;;;;8.70;8.50;;;16.50;99.90;;;;;;5081500;28;20261;-80
2022/10/24 13:05:54;;;;;;;8.70;8.50;;;16.50;99.90;;;;;;5083549;28;20259;-78
2022/10/24 13:09:00;;;;;;;8.85;8.65;;;16.50;99.90;;;;;;5082307;28;20226;-78
2022/10/24 13:11:46;;;;;;;9.32;9.02;;;16.40;99.90;;;;;;5081404;28;20222;-78
2022/10/24 13:14:42;;;;;;;9.40;9.10;;;16.50;99.90;;;;;;5082507;28;21084;-78
2022/10/24 13:17:27;;;;;;;9.65;9.35;;;16.50;99.90;;;;;;5079743;28;20234;-77
2022/10/24 13:20:05;;;;;;;9.60;9.30;;;16.50;99.90;;;;;;5080267;28;20721;-78
2022/10/24 13:22:37;;;;;;;9.38;9.07;;;16.40;99.90;;;;;;5082511;28;20230;-79
2022/10/24 13:25:32;;;;;;;9.38;9.07;;;16.50;99.90;;;;;;5082473;28;20230;-78
2022/10/24 13:28:42;;;;;;;9.35;9.05;;;16.40;99.90;;;;;;5083133;28;20249;-79
2022/10/24 13:31:48;;;;;;;9.40;9.10;;;16.30;99.90;;;;;;5081543;28;20234;-79
2022/10/24 13:34:23;;;;;;;9.07;8.77;;;16.20;99.90;;;;;;5081568;28;21140;-79
2022/10/24 13:37:03;;;;;;;8.60;8.40;;;16.10;99.90;;;;;;5085217;28;20249;-78
2022/10/24 13:39:36;;;;;;;9.00;8.73;;;16.00;99.90;;;;;;5086009;28;20256;-77
2022/10/24 13:42:07;;;;;;;8.80;8.60;;;16.00;99.90;;;;;;5096144;28;20245;-79
2022/10/24 13:44:45;;;;;;;8.90;8.65;;;15.90;99.90;;;;;;5084134;28;20333;-79
2022/10/24 13:47:21;;;;;;;9.10;8.80;;;15.90;99.90;;;;;;5083200;28;20297;-78
2022/10/24 13:49:56;;;;;;;8.45;8.25;;;15.80;99.90;;;;;;5082802;28;20244;-79
2022/10/24 13:52:32;;;;;;;8.40;8.20;;;15.80;99.90;;;;;;5083148;28;20312;-79
2022/10/24 13:55:05;;;;;;;8.70;8.50;;;15.80;99.90;;;;;;5098563;28;20214;-78
2022/10/24 13:57:49;;;;;;;8.85;8.65;;;15.80;99.90;;;;;;5110874;28;20243;-77
2022/10/24 14:00:23;;;;;;;8.70;8.50;;;15.80;99.90;;;;;;5122540;28;20386;-78
2022/10/24 14:02:52;;;;;;;8.88;8.68;;;15.80;99.90;;;;;;5120588;28;20233;-80
2022/10/24 14:05:29;;;;;;;8.85;8.65;;;15.80;99.90;;;;;;5121559;28;20320;-78
2022/10/24 14:07:57;;;;;;;8.90;8.70;;;15.80;99.90;;;;;;5120475;28;20236;-77
2022/10/24 14:10:26;;;;;;;9.07;8.77;;;15.90;99.90;;;;;;5120925;28;20232;-79
2022/10/24 14:12:56;;;;;;;9.23;8.93;;;15.90;99.90;;;;;;5120579;28;20237;-79
2022/10/24 14:15:28;;;;;;;8.75;8.55;;;16.00;99.90;;;;;;5120879;28;20209;-78
2022/10/24 14:18:01;;;;;;;9.05;8.75;;;16.00;99.90;;;;;;5122009;28;20241;-79
2022/10/24 14:20:32;;;;;;;8.57;8.38;;;16.10;99.90;;;;;;5124912;28;20231;-80
2022/10/24 14:23:00;;;;;;;8.60;8.40;;;16.20;99.90;;;;;;5119739;28;20307;-78
2022/10/24 14:25:32;;;;;;;8.70;8.50;;;16.20;99.90;;;;;;5118420;28;20315;-77
2022/10/24 14:28:03;;;;;;;8.52;8.32;;;16.20;99.90;;;;;;5120256;28;20323;-78
2022/10/24 14:30:32;;;;;;;8.90;8.70;;;16.30;99.90;;;;;;5123682;28;21090;-79
2022/10/24 14:33:22;;;;;;;8.90;8.70;;;16.50;99.90;;;;;;5124211;28;20233;-78
2022/10/24 14:35:56;;;;;;;9.10;8.80;;;16.50;99.90;;;;;;5120882;28;20279;-79
2022/10/24 14:38:24;;;;;;;9.52;9.23;;;16.60;99.90;;;;;;5120527;28;20245;-78
2022/10/24 14:40:52;;;;;;;9.20;8.90;;;16.60;99.90;;;;;;5119341;28;20327;-79
2022/10/24 14:43:25;;;;;;;9.05;8.75;;;16.60;99.90;;;;;;5120132;28;20225;-79
2022/10/24 14:46:24;;;;;;;9.30;9.00;;;16.60;99.90;;;;;;5120351;28;20311;-80
2022/10/24 14:48:53;;;;;;;9.07;8.77;;;16.60;99.90;;;;;;5115552;28;20243;-79
2022/10/24 14:51:27;;;;;;;8.73;8.52;;;16.60;99.90;;;;;;5114012;28;20233;-80
2022/10/24 14:53:56;;;;;;;9.50;9.20;;;16.70;99.90;;;;;;5078215;28;20229;-81
2022/10/24 14:56:28;;;;;;;9.30;9.00;;;16.70;99.90;;;;;;5081549;28;20206;-80
2022/10/24 14:58:58;;;;;;;9.77;9.48;;;16.70;99.90;;;;;;5104799;28;20272;-79
2022/10/24 15:01:27;;;;;;;9.60;9.30;;;16.70;99.90;;;;;;5119635;28;20696;-79
2022/10/24 15:03:58;;;;;;;9.80;9.50;;;16.60;99.90;;;;;;5099336;28;20230;-81
2022/10/24 15:06:28;;;;;;;9.38;9.07;;;16.60;99.90;;;;;;5114703;28;20222;-79
2022/10/24 15:09:06;;;;;;;9.45;9.15;;;16.50;99.90;;;;;;5100855;28;20301;-80
2022/10/24 15:11:39;;;;;;;9.30;9.00;;;16.50;99.90;;;;;;5121562;28;20239;-79
2022/10/24 15:14:33;;;;;;;9.50;9.20;;;16.50;99.90;;;;;;5123629;28;20225;-78
2022/10/24 15:17:06;;;;;;;9.45;9.15;;;16.40;99.90;;;;;;5122169;28;20237;-77
2022/10/24 15:19:38;;;;;;;9.40;9.10;;;16.40;99.90;;;;;;5121959;28;20236;-78
2022/10/24 15:22:05;;;;;;;9.30;9.00;;;16.40;99.90;;;;;;5120455;28;20270;-78
2022/10/24 15:24:33;;;;;;;9.00;8.73;;;16.30;99.90;;;;;;5118994;28;20224;-78
2022/10/24 15:27:12;;;;;;;8.50;8.30;;;16.20;99.90;;;;;;5109251;28;20320;-78
2022/10/24 15:29:41;;;;;;;8.60;8.40;;;16.20;99.90;;;;;;5101409;28;20325;-79
2022/10/24 15:32:14;;;;;;;8.98;8.77;;;16.10;99.90;;;;;;5100886;28;20243;-78
2022/10/24 15:34:42;;;;;;;8.80;8.60;;;16.00;99.90;;;;;;5100518;28;20239;-80
2022/10/24 15:37:21;;;;;;;8.70;8.50;;;16.00;99.90;;;;;;5100328;28;20295;-79
2022/10/24 15:39:49;;;;;;;9.05;8.80;;;16.00;99.90;;;;;;5102780;28;20704;-78
2022/10/24 15:42:17;;;;;;;9.10;8.80;;;15.90;99.90;;;;;;5104711;28;20229;-78
2022/10/24 15:44:44;;;;;;;9.40;9.10;;;15.90;99.90;;;;;;5102951;28;20239;-79
2022/10/24 15:47:13;;;;;;;9.20;8.90;;;15.90;99.90;;;;;;5113145;28;20233;-79
2022/10/24 15:49:41;;;;;;;9.20;8.90;;;15.90;99.90;;;;;;5124279;28;20220;-78
2022/10/24 15:52:15;;;;;;;9.40;9.10;;;15.80;99.90;;;;;;5115112;28;20236;-79
2022/10/24 15:54:43;;;;;;;8.80;8.60;;;15.80;99.90;;;;;;5081298;28;20237;-78
2022/10/24 15:57:12;;;;;;;9.48;9.18;;;15.80;99.90;;;;;;5081242;28;20254;-78
2022/10/24 15:59:40;;;;;;;8.93;8.73;;;15.70;99.90;;;;;;5080646;28;20234;-78
2022/10/24 16:02:18;;;;;;;8.57;8.38;;;15.70;99.90;;;;;;5081495;28;20297;-77
2022/10/24 16:04:46;;;;;;;8.60;8.40;;;15.70;99.90;;;;;;5090389;28;20229;-77
2022/10/24 16:07:14;;;;;;;8.77;8.57;;;15.70;99.90;;;;;;5107627;28;20238;-76
2022/10/24 16:09:41;;;;;;;8.55;8.35;;;15.60;99.90;;;;;;5100557;28;20234;-78
2022/10/24 16:12:11;;;;;;;8.55;8.35;;;15.60;99.90;;;;;;5108693;28;20281;-78
2022/10/24 16:14:38;;;;;;;9.07;8.77;;;15.60;99.90;;;;;;5101325;28;20234;-78
2022/10/24 16:17:06;;;;;;;9.27;8.98;;;15.50;99.90;;;;;;5102930;28;20257;-78
2022/10/24 16:19:35;;;;;;;9.20;8.90;;;15.50;99.90;;;;;;5105745;28;20416;-77
2022/10/24 16:22:03;;;;;;;9.18;8.88;;;15.50;99.90;;;;;;5113777;28;20232;-78
2022/10/24 16:24:30;;;;;;;8.45;8.25;;;15.40;99.90;;;;;;5120904;28;20294;-77
2022/10/24 16:26:58;;;;;;;8.70;8.50;;;15.40;99.90;;;;;;5126594;28;20235;-77
2022/10/24 16:29:25;;;;;;;8.20;8.00;;;15.40;99.90;;;;;;5128895;28;20233;-77
2022/10/24 16:31:53;;;;;;;8.10;7.90;;;15.30;99.90;;;;;;5129145;28;20233;-79
2022/10/24 16:34:22;;;;;;;8.48;8.27;;;15.30;99.90;;;;;;5123380;28;20256;-79
2022/10/24 16:36:54;;;;;;;8.45;8.25;;;15.30;99.90;;;;;;5124420;28;20217;-78
2022/10/24 16:39:22;;;;;;;8.20;8.00;;;15.20;99.90;;;;;;5123448;28;20240;-78
2022/10/24 16:41:56;;;;;;;8.40;8.20;;;15.20;99.90;;;;;;5123288;28;20241;-78
2022/10/24 16:44:23;;;;;;;8.75;8.55;;;15.20;99.90;;;;;;5122527;28;20272;-78
2022/10/24 16:46:53;;;;;;;8.77;8.57;;;15.10;99.90;;;;;;5122550;28;20235;-78
2022/10/24 16:49:21;;;;;;;8.73;8.52;;;15.10;99.90;;;;;;5102767;28;20237;-78
2022/10/24 16:51:48;;;;;;;8.30;8.10;;;15.10;99.90;;;;;;5102157;28;20237;-77
2022/10/24 16:54:19;;;;;;;8.70;8.50;;;15.10;99.90;;;;;;5100855;28;20279;-78
2022/10/24 16:56:47;;;;;;;8.43;8.23;;;15.10;99.90;;;;;;5102042;28;20214;-78
2022/10/24 16:59:15;;;;;;;8.50;8.30;;;15.00;99.90;;;;;;5100709;28;20240;-79
2022/10/24 17:01:43;;;;;;;8.50;8.30;;;15.00;99.90;;;;;;5100267;28;20329;-79
2022/10/24 17:04:10;;;;;;;8.20;8.00;;;15.00;99.90;;;;;;5100216;28;20256;-78
2022/10/24 17:06:38;;;;;;;8.23;8.02;;;15.00;99.90;;;;;;5087954;28;20380;-77
2022/10/24 17:09:05;;;;;;;19.17;18.67;;;14.90;99.90;;;;;;5078845;28;20233;-77
2022/10/24 17:11:34;;;;;;;8.07;7.88;;;14.90;99.90;;;;;;5103406;28;20234;-76
2022/10/24 17:14:02;;;;;;;7.90;7.70;;;14.90;99.90;;;;;;5114184;28;20290;-78
2022/10/24 17:16:30;;;;;;;7.88;7.68;;;14.90;99.90;;;;;;5121160;28;20227;-78
2022/10/24 17:18:57;;;;;;;7.97;7.78;;;14.90;99.90;;;;;;5120313;28;20232;-77
2022/10/24 17:21:25;;;;;;;7.70;7.50;;;14.90;99.90;;;;;;5120061;28;20225;-77
2022/10/24 17:23:53;;;;;;;7.90;7.70;;;14.80;99.90;;;;;;5121263;28;20233;-77
2022/10/24 17:26:21;;;;;;;8.17;7.97;;;14.80;99.90;;;;;;5130425;28;20253;-77
2022/10/24 17:28:50;;;;;;;8.27;8.07;;;14.70;99.90;;;;;;5121772;28;20232;-77
2022/10/24 17:31:18;;;;;;;8.50;8.30;;;14.70;99.90;;;;;;5121604;28;20225;-77
2022/10/24 17:33:46;;;;;;;8.10;7.90;;;14.70;99.90;;;;;;5127711;28;20298;-74
2022/10/24 17:36:23;;;;;;;8.50;8.30;;;14.70;99.90;;;;;;5105346;28;20218;-75
2022/10/24 17:38:56;;;;;;;8.20;8.00;;;14.60;99.90;;;;;;5099273;28;20245;-75
2022/10/24 17:41:27;;;;;;;8.47;8.27;;;14.60;99.90;;;;;;5099386;28;20257;-75
2022/10/24 18:06:25;;;;;;;8.00;7.80;;;14.50;99.90;;;;;;4906940;29;20235;-89
2022/10/24 22:22:46;;;;;;;9.17;8.87;;;13.40;99.90;;;;;;5035226;28;20232;-87
2022/10/24 22:25:14;;;;;;;9.30;9.00;;;13.40;99.90;;;;;;5036377;28;20263;-88
2022/10/24 22:27:42;;;;;;;9.27;8.97;;;13.40;99.90;;;;;;5038492;28;20239;-88
2022/10/24 22:30:11;;;;;;;9.17;8.87;;;13.40;99.90;;;;;;5038181;28;20267;-87
2022/10/24 22:32:39;;;;;;;9.20;8.90;;;13.40;99.90;;;;;;5039498;28;20263;-87